KLVL

Lawrenceville / Brunswick Municipal Airport

Lawrenceville, Virginia, USA
METAR KLVL 241435Z AUTO 23007KT 10SM CLR 28/22 A2992 RMK AO1 T02800222
Observed Flight Rules
Jun-24 @ 14:35 UTC (30 minutes ago) Visual Flight Rules
Wind Visibility Clouds
230° at 7 knots 10 miles
  • Clear skies
Temperatures Readings
Current 28°C / 82°F
Dewpoint 22°C / 72°F
Humidity 70%
Altimeter 29.92" Hg
Pressure 1013 hPa
Elevation 100
METAR KLVL 241435Z AUTO 23007KT 10SM CLR 28/22 A2992 RMK AO1 T02800222
Observed Flight Rules
Jun-24 @ 14:35 UTC
(30 minutes ago)
VFR
Wind Visibility
230° at 7 knots 10 miles
Clouds
  • Clear skies
Temperature Dewpoint
28°C / 82°F 22°C / 72°F
Humidity Altimeter Pressure
70% 29.92" Hg 1013 hPa